createdAt,value
2023-09-30T00:00:01.657Z,8.68
2023-09-30T00:02:28.940Z,11.70
2023-09-30T00:04:55.803Z,11.63
2023-09-30T00:07:22.760Z,9.88
2023-09-30T00:09:50.270Z,10.88
2023-09-30T00:12:17.128Z,6.18
2023-09-30T00:14:44.226Z,11.13
2023-09-30T00:17:11.088Z,7.78
2023-09-30T00:19:38.208Z,7.90
2023-09-30T00:22:05.188Z,8.52
2023-09-30T00:24:32.002Z,12.32
2023-09-30T00:26:58.883Z,12.23
2023-09-30T00:29:25.725Z,12.00
2023-09-30T00:31:52.620Z,12.93
2023-09-30T00:34:19.293Z,14.48
2023-09-30T00:36:46.094Z,11.15
2023-09-30T00:39:12.943Z,11.43
2023-09-30T00:41:42.430Z,13.13
2023-09-30T00:44:09.262Z,9.43
2023-09-30T00:46:40.860Z,18.88
2023-09-30T00:49:07.870Z,10.65
2023-09-30T00:51:34.855Z,18.23
2023-09-30T00:54:02.335Z,14.82
2023-09-30T00:56:31.019Z,12.18
2023-09-30T00:58:58.060Z,12.03
2023-09-30T01:01:25.129Z,13.85
2023-09-30T01:03:52.471Z,16.10
2023-09-30T01:06:19.514Z,12.38
2023-09-30T01:08:46.307Z,15.07
2023-09-30T01:11:14.626Z,13.45
2023-09-30T01:13:41.329Z,13.70
2023-09-30T01:16:12.564Z,10.80
2023-09-30T01:18:41.316Z,9.35
2023-09-30T01:21:08.503Z,11.67
2023-09-30T01:23:39.935Z,12.55
2023-09-30T01:26:10.461Z,17.10
2023-09-30T01:28:37.682Z,8.85
2023-09-30T01:31:05.426Z,13.15
2023-09-30T01:33:33.610Z,13.95
2023-09-30T01:36:00.719Z,14.30
2023-09-30T01:38:27.535Z,12.80
2023-09-30T01:40:56.884Z,13.48
2023-09-30T01:43:25.018Z,12.88
2023-09-30T01:45:51.825Z,12.40
2023-09-30T01:48:18.756Z,12.27
2023-09-30T01:50:45.775Z,16.98
2023-09-30T01:53:12.403Z,15.73
2023-09-30T01:55:39.126Z,9.73
2023-09-30T01:58:06.139Z,10.13
2023-09-30T02:00:32.979Z,12.82
2023-09-30T02:02:59.774Z,10.77
2023-09-30T02:05:26.486Z,13.02
2023-09-30T02:07:53.350Z,12.30
2023-09-30T02:10:20.514Z,9.48
2023-09-30T02:12:48.050Z,10.45
2023-09-30T02:15:15.471Z,14.55
2023-09-30T02:17:46.967Z,12.95
2023-09-30T02:20:17.167Z,10.93
2023-09-30T02:22:45.807Z,9.95
2023-09-30T02:25:13.731Z,9.45
2023-09-30T02:27:42.896Z,13.65
2023-09-30T02:30:11.803Z,9.85
2023-09-30T02:32:40.996Z,9.35
2023-09-30T02:35:08.582Z,13.25
2023-09-30T02:37:38.427Z,11.60
2023-09-30T02:40:09.878Z,9.68
2023-09-30T02:42:41.621Z,13.15
2023-09-30T02:45:09.941Z,12.38
2023-09-30T02:47:38.013Z,11.50
2023-09-30T02:50:07.361Z,9.88
2023-09-30T02:52:34.107Z,15.65
2023-09-30T02:55:01.005Z,12.18
2023-09-30T02:57:30.806Z,13.50
2023-09-30T02:59:57.661Z,12.45
2023-09-30T03:02:25.179Z,9.05
2023-09-30T03:04:53.346Z,8.95
2023-09-30T03:07:21.319Z,10.77
2023-09-30T03:09:48.340Z,7.35
2023-09-30T03:12:15.326Z,6.93
2023-09-30T03:14:42.155Z,8.75
2023-09-30T03:17:12.888Z,9.45
2023-09-30T03:19:40.269Z,7.97
2023-09-30T03:22:11.929Z,7.10
2023-09-30T03:24:40.735Z,10.18
2023-09-30T03:27:08.767Z,8.10
2023-09-30T03:29:39.501Z,11.05
2023-09-30T03:32:06.514Z,8.50
2023-09-30T03:34:34.719Z,14.05
2023-09-30T03:37:01.481Z,8.38
2023-09-30T03:39:28.451Z,9.88
2023-09-30T03:41:57.272Z,9.18
2023-09-30T03:44:24.323Z,9.93
2023-09-30T03:46:52.363Z,5.85
2023-09-30T03:49:23.611Z,13.77
2023-09-30T03:51:51.870Z,7.68
2023-09-30T03:54:19.100Z,10.00
2023-09-30T03:56:48.087Z,7.75
2023-09-30T03:59:14.803Z,7.70
2023-09-30T04:01:41.878Z,9.05
2023-09-30T04:04:11.105Z,6.70
2023-09-30T04:06:40.159Z,12.20
2023-09-30T04:09:11.182Z,9.70
2023-09-30T04:11:38.972Z,8.35
2023-09-30T04:14:07.564Z,6.50
2023-09-30T04:16:34.803Z,8.18
2023-09-30T04:19:01.528Z,9.02
2023-09-30T04:21:30.997Z,9.57
2023-09-30T04:23:59.042Z,7.60
2023-09-30T04:26:26.429Z,9.55
2023-09-30T04:28:54.421Z,10.13
2023-09-30T04:31:25.129Z,14.43
2023-09-30T04:33:52.526Z,9.23
2023-09-30T04:36:19.551Z,8.20
2023-09-30T04:38:46.367Z,9.55
2023-09-30T04:41:13.377Z,7.18
2023-09-30T04:43:40.477Z,15.27
2023-09-30T04:46:10.464Z,9.40
2023-09-30T04:48:37.343Z,7.47
2023-09-30T04:51:09.110Z,14.30
2023-09-30T04:53:36.071Z,12.77
2023-09-30T04:56:04.045Z,10.18
2023-09-30T04:58:30.989Z,11.25
2023-09-30T05:00:57.901Z,9.38
2023-09-30T05:03:27.691Z,6.40
2023-09-30T05:05:56.879Z,12.02
2023-09-30T05:08:25.186Z,8.00
2023-09-30T05:10:51.873Z,8.30
2023-09-30T05:13:19.481Z,6.85
2023-09-30T05:15:47.677Z,8.98
2023-09-30T05:18:14.949Z,9.20
2023-09-30T05:20:42.144Z,11.80
2023-09-30T05:23:08.966Z,7.20
2023-09-30T05:25:35.697Z,10.38
2023-09-30T05:28:04.695Z,8.48
2023-09-30T05:30:31.520Z,9.77
2023-09-30T05:32:59.927Z,13.05
2023-09-30T05:35:26.707Z,12.75
2023-09-30T05:37:54.357Z,9.25
2023-09-30T05:40:27.918Z,6.32
2023-09-30T05:42:56.472Z,12.02
2023-09-30T05:45:30.384Z,9.85
2023-09-30T05:47:58.353Z,13.63
2023-09-30T05:50:26.282Z,7.43
2023-09-30T05:52:57.243Z,12.35
2023-09-30T05:55:26.792Z,10.18
2023-09-30T05:57:54.002Z,9.15
2023-09-30T06:00:24.450Z,6.82
2023-09-30T06:02:52.524Z,13.68
2023-09-30T06:05:23.450Z,10.15
2023-09-30T06:07:50.760Z,9.38
2023-09-30T06:10:19.516Z,10.73
2023-09-30T06:12:51.066Z,6.15
2023-09-30T06:15:22.999Z,11.73
2023-09-30T06:17:54.154Z,11.98
2023-09-30T06:20:23.517Z,7.10
2023-09-30T06:22:50.849Z,11.25
2023-09-30T06:25:18.828Z,12.93
2023-09-30T06:27:49.805Z,6.28
2023-09-30T06:30:17.926Z,13.20
2023-09-30T06:32:46.200Z,15.23
2023-09-30T06:35:14.031Z,20.38
2023-09-30T06:37:41.871Z,17.90
2023-09-30T06:40:09.987Z,23.85
2023-09-30T06:42:37.812Z,15.60
2023-09-30T06:45:06.681Z,15.55
2023-09-30T06:47:34.814Z,12.15
2023-09-30T06:50:08.582Z,9.63
2023-09-30T06:52:36.616Z,17.65
2023-09-30T06:55:07.162Z,10.93
2023-09-30T06:57:35.874Z,13.25
2023-09-30T07:00:09.246Z,11.03
2023-09-30T07:02:37.172Z,8.90
2023-09-30T07:05:08.653Z,12.98
2023-09-30T07:07:35.334Z,7.72
2023-09-30T07:10:02.072Z,7.30
2023-09-30T07:12:29.060Z,11.75
2023-09-30T07:14:55.724Z,8.43
2023-09-30T07:17:22.353Z,16.80
2023-09-30T07:19:49.676Z,15.95
2023-09-30T07:22:18.166Z,19.25
2023-09-30T07:24:50.666Z,11.45
2023-09-30T07:27:27.495Z,14.60
2023-09-30T07:29:55.237Z,11.98
2023-09-30T07:32:24.465Z,14.00
2023-09-30T07:34:52.898Z,11.02
2023-09-30T07:37:19.944Z,12.88
2023-09-30T07:39:47.034Z,11.85
2023-09-30T07:42:13.713Z,13.85
2023-09-30T07:44:40.509Z,20.33
2023-09-30T07:47:10.549Z,14.02
2023-09-30T07:49:38.758Z,15.18
2023-09-30T07:52:05.548Z,24.35
2023-09-30T07:54:32.441Z,27.73
2023-09-30T07:57:00.431Z,19.67
2023-09-30T07:59:28.049Z,18.10
2023-09-30T08:01:54.875Z,17.98
2023-09-30T08:04:21.786Z,15.43
2023-09-30T08:06:48.522Z,14.65
2023-09-30T08:09:15.688Z,16.83
2023-09-30T08:11:42.396Z,17.48
2023-09-30T08:14:12.283Z,16.77
2023-09-30T08:16:39.218Z,14.43
2023-09-30T08:19:06.548Z,19.95
2023-09-30T08:21:33.269Z,17.88
2023-09-30T08:24:00.535Z,22.25
2023-09-30T08:26:27.414Z,12.32
2023-09-30T08:28:54.092Z,11.45
2023-09-30T08:31:22.924Z,12.13
2023-09-30T08:33:49.734Z,15.10
2023-09-30T08:36:16.559Z,13.32
2023-09-30T08:38:43.593Z,21.00
2023-09-30T08:41:10.520Z,12.68
2023-09-30T08:43:40.214Z,10.10
2023-09-30T08:46:08.048Z,11.73
2023-09-30T08:48:35.510Z,13.45
2023-09-30T08:51:03.178Z,13.20
2023-09-30T08:53:30.837Z,11.95
2023-09-30T08:56:01.063Z,8.30
2023-09-30T08:58:29.278Z,14.32
2023-09-30T09:00:57.735Z,16.55
2023-09-30T09:03:24.938Z,10.40
2023-09-30T09:05:58.310Z,15.80
2023-09-30T09:08:28.337Z,11.50
2023-09-30T09:10:59.909Z,13.35
2023-09-30T09:13:28.157Z,10.02
2023-09-30T09:16:08.954Z,9.95
2023-09-30T09:18:39.529Z,10.27
2023-09-30T09:21:27.036Z,9.15
2023-09-30T09:23:54.882Z,7.32
2023-09-30T09:26:29.481Z,7.95
2023-09-30T09:29:04.475Z,10.05
2023-09-30T09:31:36.432Z,10.32
2023-09-30T09:34:05.262Z,7.32
2023-09-30T09:36:46.079Z,8.00
2023-09-30T09:39:17.515Z,11.18
2023-09-30T09:41:52.411Z,10.57
2023-09-30T09:44:23.590Z,7.80
2023-09-30T09:46:51.738Z,8.68
2023-09-30T09:49:19.722Z,8.35
2023-09-30T09:51:48.340Z,7.32
2023-09-30T09:54:18.441Z,6.20
2023-09-30T09:56:46.056Z,6.53
2023-09-30T09:59:13.849Z,5.95
2023-09-30T10:01:42.536Z,6.47
2023-09-30T10:04:12.037Z,7.40
2023-09-30T10:06:41.758Z,7.55
2023-09-30T10:09:13.728Z,5.90
2023-09-30T10:11:43.902Z,3.92
2023-09-30T10:14:34.046Z,7.22
2023-09-30T10:17:01.271Z,4.68
2023-09-30T10:19:30.595Z,3.72
2023-09-30T10:22:20.790Z,3.33
2023-09-30T10:24:48.338Z,4.82
2023-09-30T10:27:29.976Z,3.38
2023-09-30T10:30:02.789Z,3.03
2023-09-30T10:32:55.035Z,3.00
2023-09-30T10:35:43.163Z,2.60
2023-09-30T10:38:31.705Z,3.00
2023-09-30T10:40:58.919Z,2.35
2023-09-30T10:43:34.602Z,3.65
2023-09-30T10:46:02.388Z,1.95
2023-09-30T10:48:29.110Z,4.97
2023-09-30T10:50:57.736Z,2.28
2023-09-30T10:53:24.564Z,3.42
2023-09-30T10:55:59.018Z,3.17
2023-09-30T10:58:42.154Z,4.18
2023-09-30T11:01:09.304Z,2.78
2023-09-30T11:03:36.584Z,4.97
2023-09-30T11:06:12.308Z,2.38
2023-09-30T11:08:45.386Z,2.83
2023-09-30T11:11:12.029Z,3.67
2023-09-30T11:13:40.191Z,5.60
2023-09-30T11:16:07.372Z,2.17
2023-09-30T11:18:34.255Z,3.50
2023-09-30T11:21:12.666Z,2.30
2023-09-30T11:23:39.700Z,3.63
2023-09-30T11:26:06.700Z,3.55
2023-09-30T11:28:44.573Z,3.10
2023-09-30T11:31:13.272Z,4.47
2023-09-30T11:33:54.004Z,5.00
2023-09-30T11:36:22.874Z,3.28
2023-09-30T11:38:53.828Z,5.50
2023-09-30T11:41:22.346Z,3.90
2023-09-30T11:44:12.382Z,2.88
2023-09-30T11:47:06.191Z,3.75
2023-09-30T11:49:39.404Z,3.55
2023-09-30T11:52:11.816Z,2.95
2023-09-30T11:54:42.171Z,5.30
2023-09-30T11:57:10.769Z,3.70
2023-09-30T11:59:38.840Z,4.35
2023-09-30T12:02:14.395Z,5.07
2023-09-30T12:04:43.310Z,3.97
2023-09-30T12:07:10.285Z,2.33
2023-09-30T12:09:40.829Z,4.75
2023-09-30T12:12:16.058Z,5.93
2023-09-30T12:14:43.081Z,4.10
2023-09-30T12:17:13.979Z,5.05
2023-09-30T12:19:42.160Z,4.85
2023-09-30T12:22:11.025Z,4.15
2023-09-30T12:24:37.713Z,4.47
2023-09-30T12:27:05.726Z,4.07
2023-09-30T12:29:32.872Z,3.50
2023-09-30T12:31:59.594Z,3.63
2023-09-30T12:34:28.563Z,3.63
2023-09-30T12:36:57.994Z,5.18
2023-09-30T12:39:26.947Z,5.97
2023-09-30T12:41:55.043Z,2.65
2023-09-30T12:44:21.919Z,2.25
2023-09-30T12:46:48.944Z,2.72
2023-09-30T12:49:16.227Z,3.83
2023-09-30T12:51:43.130Z,3.88
2023-09-30T12:54:10.354Z,4.60
2023-09-30T12:56:37.097Z,8.85
2023-09-30T12:59:04.151Z,4.20
2023-09-30T13:01:35.108Z,2.42
2023-09-30T13:04:02.021Z,4.10
2023-09-30T13:06:30.123Z,5.63
2023-09-30T13:08:57.103Z,5.03
2023-09-30T13:11:23.937Z,4.75
2023-09-30T13:13:50.849Z,4.05
2023-09-30T13:16:17.590Z,4.40
2023-09-30T13:18:44.561Z,5.65
2023-09-30T13:21:13.153Z,3.22
2023-09-30T13:23:39.853Z,3.70
2023-09-30T13:26:06.507Z,3.70
2023-09-30T13:28:33.862Z,4.90
2023-09-30T13:31:00.886Z,6.28
2023-09-30T13:33:27.625Z,9.55
2023-09-30T13:35:56.529Z,4.90
2023-09-30T13:38:23.581Z,5.70
2023-09-30T13:40:50.280Z,3.85
2023-09-30T13:43:17.082Z,4.90
2023-09-30T13:45:43.771Z,4.78
2023-09-30T13:48:10.489Z,4.60
2023-09-30T13:50:37.209Z,5.65
2023-09-30T13:53:04.302Z,5.68
2023-09-30T13:55:31.110Z,5.55
2023-09-30T13:57:58.175Z,7.65
2023-09-30T14:00:24.933Z,6.80
2023-09-30T14:02:52.544Z,6.85
2023-09-30T14:05:21.482Z,5.10
2023-09-30T14:07:49.216Z,5.75
2023-09-30T14:10:16.263Z,7.47
2023-09-30T14:12:43.683Z,8.48
2023-09-30T14:15:11.343Z,7.78
2023-09-30T14:17:38.465Z,5.10
2023-09-30T14:20:06.890Z,3.30
2023-09-30T14:22:34.333Z,5.80
2023-09-30T14:25:01.170Z,5.10
2023-09-30T14:27:28.479Z,4.88
2023-09-30T14:29:55.234Z,4.22
2023-09-30T14:32:22.042Z,4.22
2023-09-30T14:34:48.955Z,6.70
2023-09-30T14:37:15.917Z,4.40
2023-09-30T14:39:42.925Z,4.93
2023-09-30T14:42:09.777Z,6.05
2023-09-30T14:44:36.664Z,7.40
2023-09-30T14:47:03.558Z,7.75
2023-09-30T14:49:32.369Z,6.57
2023-09-30T14:51:59.530Z,7.80
2023-09-30T14:54:26.349Z,9.65
2023-09-30T14:56:53.523Z,9.13
2023-09-30T14:59:20.683Z,7.85
2023-09-30T15:01:47.633Z,6.75
2023-09-30T15:04:16.733Z,4.65
2023-09-30T15:06:43.712Z,8.85
2023-09-30T15:09:13.052Z,5.18
2023-09-30T15:14:06.737Z,5.63
2023-09-30T15:16:33.914Z,7.55
2023-09-30T15:19:00.789Z,6.25
2023-09-30T15:21:27.831Z,7.20
2023-09-30T15:23:54.600Z,5.25
2023-09-30T15:26:21.302Z,8.93
2023-09-30T15:28:48.693Z,6.70
2023-09-30T15:31:16.151Z,7.88
2023-09-30T15:33:43.091Z,7.53
2023-09-30T15:36:14.049Z,7.95
2023-09-30T15:38:41.246Z,8.10
2023-09-30T15:41:08.011Z,7.38
2023-09-30T15:43:36.172Z,7.82
2023-09-30T15:46:03.247Z,7.97
2023-09-30T15:48:30.865Z,6.88
2023-09-30T15:50:57.789Z,6.53
2023-09-30T15:53:24.589Z,6.05
2023-09-30T15:55:51.544Z,10.65
2023-09-30T15:58:18.388Z,13.18
2023-09-30T16:00:45.732Z,10.70
2023-09-30T16:03:13.090Z,9.07
2023-09-30T16:05:40.969Z,10.85
2023-09-30T16:08:08.868Z,7.10
2023-09-30T16:10:36.708Z,9.10
2023-09-30T16:13:04.758Z,7.07
2023-09-30T16:15:31.714Z,10.20
2023-09-30T16:17:59.553Z,7.50
2023-09-30T16:20:26.609Z,11.77
2023-09-30T16:22:53.977Z,7.63
2023-09-30T16:25:21.296Z,8.10
2023-09-30T16:27:49.571Z,7.53
2023-09-30T16:30:17.136Z,7.80
2023-09-30T16:32:44.140Z,5.50
2023-09-30T16:35:11.178Z,8.75
2023-09-30T16:37:38.802Z,6.88
2023-09-30T16:40:07.773Z,7.82
2023-09-30T16:42:35.042Z,11.32
2023-09-30T16:45:03.034Z,9.02
2023-09-30T16:47:29.894Z,12.45
2023-09-30T16:49:57.152Z,13.02
2023-09-30T16:52:25.839Z,8.07
2023-09-30T16:54:53.144Z,11.50
2023-09-30T16:57:20.232Z,13.30
2023-09-30T16:59:47.067Z,13.23
2023-09-30T17:02:17.096Z,11.02
2023-09-30T17:04:44.633Z,10.57
2023-09-30T17:07:11.442Z,11.57
2023-09-30T17:09:38.329Z,9.52
2023-09-30T17:12:05.391Z,10.88
2023-09-30T17:14:35.302Z,9.43
2023-09-30T17:17:03.499Z,10.30
2023-09-30T17:19:30.283Z,11.68
2023-09-30T17:21:57.277Z,11.70
2023-09-30T17:24:24.231Z,13.35
2023-09-30T17:26:51.082Z,12.85
2023-09-30T17:29:17.876Z,10.45
2023-09-30T17:31:44.808Z,12.80
2023-09-30T17:34:11.834Z,12.45
2023-09-30T17:36:38.588Z,13.65
2023-09-30T17:39:05.524Z,17.08
2023-09-30T17:41:32.905Z,9.25
2023-09-30T17:44:00.739Z,12.13
2023-09-30T17:46:27.658Z,11.85
2023-09-30T17:48:54.567Z,10.98
2023-09-30T17:51:21.968Z,14.45
2023-09-30T17:53:53.331Z,14.25
2023-09-30T17:56:23.727Z,10.65
2023-09-30T17:58:50.590Z,15.98
2023-09-30T18:01:21.066Z,10.70
2023-09-30T18:03:48.924Z,8.65
2023-09-30T18:06:16.441Z,13.88
2023-09-30T18:08:47.233Z,9.77
2023-09-30T18:11:14.196Z,12.65
2023-09-30T18:13:41.048Z,21.17
2023-09-30T18:16:08.616Z,22.67
2023-09-30T18:18:36.993Z,23.42
2023-09-30T18:21:04.596Z,16.77
2023-09-30T18:23:31.621Z,24.00
2023-09-30T18:25:58.501Z,21.30
2023-09-30T18:28:27.877Z,33.13
2023-09-30T18:30:54.605Z,39.85
2023-09-30T18:33:21.431Z,19.80
2023-09-30T18:35:48.287Z,17.85
2023-09-30T18:38:15.180Z,16.33
2023-09-30T18:40:44.258Z,12.10
2023-09-30T18:43:17.826Z,13.10
2023-09-30T18:45:45.909Z,13.18
2023-09-30T18:48:13.987Z,11.60
2023-09-30T18:50:41.646Z,15.32
2023-09-30T18:53:09.511Z,11.98
2023-09-30T18:55:41.142Z,16.10
2023-09-30T18:58:08.439Z,8.32
2023-09-30T19:00:37.301Z,11.68
2023-09-30T19:03:04.395Z,12.55
2023-09-30T19:05:31.836Z,9.60
2023-09-30T19:07:58.734Z,8.45
2023-09-30T19:10:25.487Z,9.27
2023-09-30T19:12:52.609Z,12.32
2023-09-30T19:15:19.487Z,15.20
2023-09-30T19:17:46.372Z,18.35
2023-09-30T19:20:15.891Z,16.70
2023-09-30T19:22:42.651Z,16.17
2023-09-30T19:25:09.806Z,14.70
2023-09-30T19:27:36.711Z,14.95
2023-09-30T19:30:06.455Z,16.73
2023-09-30T19:35:02.249Z,13.27
2023-09-30T19:37:29.899Z,12.93
2023-09-30T19:39:56.796Z,15.07
2023-09-30T19:42:23.711Z,10.60
2023-09-30T19:44:50.396Z,11.80
2023-09-30T19:47:17.607Z,16.02
2023-09-30T19:49:44.622Z,13.10
2023-09-30T19:52:12.311Z,12.10
2023-09-30T19:54:42.491Z,8.18
2023-09-30T19:57:09.791Z,11.20
2023-09-30T19:59:44.094Z,10.40
2023-09-30T20:02:11.119Z,9.18
2023-09-30T20:04:39.058Z,11.30
2023-09-30T20:07:06.051Z,11.35
2023-09-30T20:09:33.116Z,14.60
2023-09-30T20:12:06.331Z,9.38
2023-09-30T20:14:34.656Z,9.07
2023-09-30T20:17:01.829Z,20.25
2023-09-30T20:19:29.104Z,24.13
2023-09-30T20:21:55.853Z,13.20
2023-09-30T20:24:22.724Z,9.23
2023-09-30T20:26:51.195Z,10.80
2023-09-30T20:29:17.887Z,12.68
2023-09-30T20:31:45.034Z,11.23
2023-09-30T20:34:13.034Z,13.35
2023-09-30T20:36:39.833Z,11.18
2023-09-30T20:39:11.369Z,13.13
2023-09-30T20:41:39.480Z,11.63
2023-09-30T20:44:06.991Z,13.73
2023-09-30T20:46:35.353Z,12.82
2023-09-30T20:49:04.424Z,17.42
2023-09-30T20:51:31.395Z,16.55
2023-09-30T20:53:59.799Z,18.00
2023-09-30T20:56:26.798Z,23.10
2023-09-30T20:58:54.705Z,13.45
2023-09-30T21:01:22.138Z,9.55
2023-09-30T21:03:49.166Z,12.63
2023-09-30T21:06:16.502Z,14.18
2023-09-30T21:08:43.602Z,13.25
2023-09-30T21:11:10.355Z,12.48
2023-09-30T21:13:37.491Z,15.48
2023-09-30T21:16:04.973Z,10.40
2023-09-30T21:18:33.477Z,10.48
2023-09-30T21:21:00.498Z,15.23
2023-09-30T21:23:27.233Z,15.57
2023-09-30T21:25:54.372Z,13.88
2023-09-30T21:28:22.578Z,14.52
2023-09-30T21:30:49.572Z,13.00
2023-09-30T21:33:16.276Z,14.40
2023-09-30T21:35:42.967Z,13.65
2023-09-30T21:38:10.149Z,17.40
2023-09-30T21:40:36.844Z,11.93
2023-09-30T21:43:04.709Z,10.80
2023-09-30T21:45:31.721Z,13.48
2023-09-30T21:47:58.702Z,13.95
2023-09-30T21:50:25.440Z,9.68
2023-09-30T21:52:52.066Z,11.23
2023-09-30T21:55:19.086Z,12.98
2023-09-30T21:57:46.041Z,17.80
2023-09-30T22:00:16.019Z,12.32
2023-09-30T22:02:43.527Z,15.90
2023-09-30T22:05:11.508Z,8.68
2023-09-30T22:07:40.339Z,14.23
2023-09-30T22:10:09.402Z,12.85
2023-09-30T22:12:36.788Z,8.75
2023-09-30T22:15:04.138Z,9.55
2023-09-30T22:17:30.908Z,11.15
2023-09-30T22:19:57.710Z,14.55
2023-09-30T22:22:24.785Z,18.73
2023-09-30T22:24:55.124Z,12.15
2023-09-30T22:27:22.442Z,7.80
2023-09-30T22:29:50.208Z,13.05
2023-09-30T22:32:17.710Z,12.65
2023-09-30T22:34:44.505Z,12.35
2023-09-30T22:37:12.281Z,13.35
2023-09-30T22:39:39.088Z,9.45
2023-09-30T22:42:05.776Z,7.47
2023-09-30T22:44:32.684Z,8.65
2023-09-30T22:46:59.831Z,13.27
2023-09-30T22:49:26.762Z,13.50
2023-09-30T22:51:54.622Z,8.82
2023-09-30T22:54:21.905Z,8.38
2023-09-30T22:56:48.851Z,8.25
2023-09-30T22:59:15.681Z,10.32
2023-09-30T23:01:42.467Z,10.00
2023-09-30T23:04:11.534Z,9.65
2023-09-30T23:06:39.703Z,7.72
2023-09-30T23:09:08.627Z,9.43
2023-09-30T23:11:35.552Z,6.32
2023-09-30T23:14:03.744Z,9.38
2023-09-30T23:16:30.814Z,7.00
2023-09-30T23:18:58.543Z,7.20
2023-09-30T23:21:25.591Z,12.52
2023-09-30T23:23:53.041Z,9.45
2023-09-30T23:26:20.082Z,8.35
2023-09-30T23:28:47.977Z,41.53
2023-09-30T23:31:16.174Z,14.38
2023-09-30T23:33:45.453Z,6.18
2023-09-30T23:36:12.644Z,13.57
2023-09-30T23:38:41.017Z,11.07
2023-09-30T23:41:12.138Z,7.78
2023-09-30T23:43:42.140Z,15.02
2023-09-30T23:46:13.107Z,7.72
2023-09-30T23:48:41.489Z,12.70
2023-09-30T23:51:08.501Z,5.10
2023-09-30T23:53:36.236Z,6.50
2023-09-30T23:56:06.581Z,16.95
2023-09-30T23:58:33.624Z,6.80
